sensor_id;sensor_type;location;lat;lon;timestamp;P1;durP1;ratioP1;P2;durP2;ratioP2
5774;SDS011;2913;51.120;6.772;2023-08-08T00:00:58;11.25;;;3.00;;
5774;SDS011;2913;51.120;6.772;2023-08-08T00:03:24;8.52;;;3.55;;
5774;SDS011;2913;51.120;6.772;2023-08-08T00:05:49;9.75;;;3.33;;
5774;SDS011;2913;51.120;6.772;2023-08-08T00:08:15;7.43;;;3.08;;
5774;SDS011;2913;51.120;6.772;2023-08-08T00:10:43;14.43;;;3.03;;
5774;SDS011;2913;51.120;6.772;2023-08-08T00:13:09;10.07;;;3.42;;
5774;SDS011;2913;51.120;6.772;2023-08-08T00:15:34;6.88;;;2.85;;
5774;SDS011;2913;51.120;6.772;2023-08-08T00:18:07;11.98;;;3.17;;
5774;SDS011;2913;51.120;6.772;2023-08-08T00:20:35;15.63;;;3.85;;
5774;SDS011;2913;51.120;6.772;2023-08-08T00:23:00;12.40;;;3.22;;
5774;SDS011;2913;51.120;6.772;2023-08-08T00:25:26;9.10;;;3.00;;
5774;SDS011;2913;51.120;6.772;2023-08-08T00:27:52;7.10;;;3.20;;
5774;SDS011;2913;51.120;6.772;2023-08-08T00:30:20;10.65;;;3.63;;
5774;SDS011;2913;51.120;6.772;2023-08-08T00:32:46;15.70;;;3.63;;
5774;SDS011;2913;51.120;6.772;2023-08-08T00:35:11;8.48;;;3.47;;
5774;SDS011;2913;51.120;6.772;2023-08-08T00:37:37;20.25;;;3.78;;
5774;SDS011;2913;51.120;6.772;2023-08-08T00:40:05;13.52;;;3.83;;
5774;SDS011;2913;51.120;6.772;2023-08-08T00:42:31;21.85;;;4.13;;
5774;SDS011;2913;51.120;6.772;2023-08-08T00:44:56;10.57;;;3.55;;
5774;SDS011;2913;51.120;6.772;2023-08-08T00:47:29;18.00;;;4.40;;
5774;SDS011;2913;51.120;6.772;2023-08-08T00:50:01;12.55;;;4.10;;
5774;SDS011;2913;51.120;6.772;2023-08-08T00:52:28;15.02;;;3.70;;
5774;SDS011;2913;51.120;6.772;2023-08-08T00:54:57;16.58;;;4.40;;
5774;SDS011;2913;51.120;6.772;2023-08-08T00:57:26;8.18;;;4.10;;
5774;SDS011;2913;51.120;6.772;2023-08-08T00:59:52;17.15;;;4.30;;
5774;SDS011;2913;51.120;6.772;2023-08-08T01:02:18;7.75;;;4.10;;
5774;SDS011;2913;51.120;6.772;2023-08-08T01:04:43;10.25;;;4.25;;
5774;SDS011;2913;51.120;6.772;2023-08-08T01:07:25;15.40;;;4.25;;
5774;SDS011;2913;51.120;6.772;2023-08-08T01:10:12;12.10;;;4.57;;
5774;SDS011;2913;51.120;6.772;2023-08-08T01:12:45;13.90;;;4.50;;
5774;SDS011;2913;51.120;6.772;2023-08-08T01:15:13;10.88;;;4.47;;
5774;SDS011;2913;51.120;6.772;2023-08-08T01:17:40;22.77;;;4.18;;
5774;SDS011;2913;51.120;6.772;2023-08-08T01:20:10;18.52;;;5.47;;
5774;SDS011;2913;51.120;6.772;2023-08-08T01:25:26;15.95;;;4.78;;
5774;SDS011;2913;51.120;6.772;2023-08-08T01:27:51;11.65;;;4.38;;
5774;SDS011;2913;51.120;6.772;2023-08-08T01:30:17;16.30;;;4.40;;
5774;SDS011;2913;51.120;6.772;2023-08-08T01:32:45;18.55;;;4.85;;
5774;SDS011;2913;51.120;6.772;2023-08-08T01:35:13;18.90;;;4.97;;
5774;SDS011;2913;51.120;6.772;2023-08-08T01:37:43;17.80;;;4.93;;
5774;SDS011;2913;51.120;6.772;2023-08-08T01:40:14;15.82;;;4.30;;
5774;SDS011;2913;51.120;6.772;2023-08-08T01:42:45;12.93;;;4.75;;
5774;SDS011;2913;51.120;6.772;2023-08-08T01:45:16;15.00;;;5.10;;
5774;SDS011;2913;51.120;6.772;2023-08-08T01:47:42;13.25;;;4.75;;
5774;SDS011;2913;51.120;6.772;2023-08-08T01:50:10;13.85;;;4.82;;
5774;SDS011;2913;51.120;6.772;2023-08-08T01:52:36;16.60;;;5.30;;
5774;SDS011;2913;51.120;6.772;2023-08-08T01:55:01;14.73;;;5.18;;
5774;SDS011;2913;51.120;6.772;2023-08-08T01:57:27;24.85;;;5.30;;
5774;SDS011;2913;51.120;6.772;2023-08-08T01:59:55;13.98;;;4.85;;
5774;SDS011;2913;51.120;6.772;2023-08-08T02:02:20;28.02;;;4.97;;
5774;SDS011;2913;51.120;6.772;2023-08-08T02:04:46;17.20;;;5.72;;
5774;SDS011;2913;51.120;6.772;2023-08-08T02:07:12;13.40;;;4.80;;
5774;SDS011;2913;51.120;6.772;2023-08-08T02:09:37;10.77;;;4.03;;
5774;SDS011;2913;51.120;6.772;2023-08-08T02:12:03;9.85;;;4.40;;
5774;SDS011;2913;51.120;6.772;2023-08-08T02:14:31;19.25;;;4.45;;
5774;SDS011;2913;51.120;6.772;2023-08-08T02:16:59;10.80;;;4.53;;
5774;SDS011;2913;51.120;6.772;2023-08-08T02:19:27;16.45;;;5.05;;
5774;SDS011;2913;51.120;6.772;2023-08-08T02:21:52;8.75;;;4.43;;
5774;SDS011;2913;51.120;6.772;2023-08-08T02:24:20;22.23;;;4.53;;
5774;SDS011;2913;51.120;6.772;2023-08-08T02:26:46;9.63;;;4.70;;
5774;SDS011;2913;51.120;6.772;2023-08-08T02:29:11;10.45;;;4.47;;
5774;SDS011;2913;51.120;6.772;2023-08-08T02:31:37;14.10;;;4.43;;
5774;SDS011;2913;51.120;6.772;2023-08-08T02:34:05;13.38;;;4.30;;
5774;SDS011;2913;51.120;6.772;2023-08-08T02:36:30;12.52;;;4.70;;
5774;SDS011;2913;51.120;6.772;2023-08-08T02:38:58;12.20;;;5.45;;
5774;SDS011;2913;51.120;6.772;2023-08-08T02:41:24;17.35;;;4.78;;
5774;SDS011;2913;51.120;6.772;2023-08-08T02:43:50;11.70;;;4.07;;
5774;SDS011;2913;51.120;6.772;2023-08-08T02:46:15;16.02;;;4.70;;
5774;SDS011;2913;51.120;6.772;2023-08-08T02:48:41;14.45;;;4.28;;
5774;SDS011;2913;51.120;6.772;2023-08-08T02:51:07;12.95;;;4.15;;
5774;SDS011;2913;51.120;6.772;2023-08-08T02:53:32;24.17;;;4.95;;
5774;SDS011;2913;51.120;6.772;2023-08-08T02:56:00;15.00;;;4.25;;
5774;SDS011;2913;51.120;6.772;2023-08-08T02:58:26;13.18;;;4.35;;
5774;SDS011;2913;51.120;6.772;2023-08-08T03:00:52;18.30;;;4.60;;
5774;SDS011;2913;51.120;6.772;2023-08-08T03:03:20;17.85;;;4.45;;
5774;SDS011;2913;51.120;6.772;2023-08-08T03:05:46;14.75;;;4.47;;
5774;SDS011;2913;51.120;6.772;2023-08-08T03:08:11;12.63;;;4.35;;
5774;SDS011;2913;51.120;6.772;2023-08-08T03:10:37;17.35;;;5.00;;
5774;SDS011;2913;51.120;6.772;2023-08-08T03:13:03;15.90;;;4.25;;
5774;SDS011;2913;51.120;6.772;2023-08-08T03:15:28;17.65;;;4.55;;
5774;SDS011;2913;51.120;6.772;2023-08-08T03:17:54;19.15;;;4.45;;
5774;SDS011;2913;51.120;6.772;2023-08-08T03:20:22;17.50;;;4.38;;
5774;SDS011;2913;51.120;6.772;2023-08-08T03:22:47;25.63;;;4.88;;
5774;SDS011;2913;51.120;6.772;2023-08-08T03:25:13;22.52;;;4.40;;
5774;SDS011;2913;51.120;6.772;2023-08-08T03:27:38;19.23;;;5.00;;
5774;SDS011;2913;51.120;6.772;2023-08-08T03:30:04;13.15;;;4.30;;
5774;SDS011;2913;51.120;6.772;2023-08-08T03:32:31;15.30;;;4.60;;
5774;SDS011;2913;51.120;6.772;2023-08-08T03:34:58;15.85;;;4.65;;
5774;SDS011;2913;51.120;6.772;2023-08-08T03:37:24;15.48;;;4.32;;
5774;SDS011;2913;51.120;6.772;2023-08-08T03:39:55;21.05;;;4.68;;
5774;SDS011;2913;51.120;6.772;2023-08-08T03:42:21;19.98;;;4.95;;
5774;SDS011;2913;51.120;6.772;2023-08-08T03:44:46;29.70;;;5.40;;
5774;SDS011;2913;51.120;6.772;2023-08-08T03:47:12;24.33;;;4.38;;
5774;SDS011;2913;51.120;6.772;2023-08-08T03:49:40;18.73;;;4.72;;
5774;SDS011;2913;51.120;6.772;2023-08-08T03:52:08;13.52;;;4.50;;
5774;SDS011;2913;51.120;6.772;2023-08-08T03:54:38;21.58;;;4.40;;
5774;SDS011;2913;51.120;6.772;2023-08-08T03:57:04;21.15;;;5.00;;
5774;SDS011;2913;51.120;6.772;2023-08-08T03:59:29;25.70;;;5.13;;
5774;SDS011;2913;51.120;6.772;2023-08-08T04:01:55;23.98;;;4.90;;
5774;SDS011;2913;51.120;6.772;2023-08-08T04:04:23;16.52;;;4.85;;
5774;SDS011;2913;51.120;6.772;2023-08-08T04:06:48;14.25;;;5.00;;
5774;SDS011;2913;51.120;6.772;2023-08-08T04:09:16;19.45;;;5.57;;
5774;SDS011;2913;51.120;6.772;2023-08-08T04:11:44;27.33;;;4.97;;
5774;SDS011;2913;51.120;6.772;2023-08-08T04:14:10;24.60;;;5.75;;
5774;SDS011;2913;51.120;6.772;2023-08-08T04:16:38;40.30;;;6.70;;
5774;SDS011;2913;51.120;6.772;2023-08-08T04:19:06;23.35;;;6.25;;
5774;SDS011;2913;51.120;6.772;2023-08-08T04:21:34;31.00;;;6.35;;
5774;SDS011;2913;51.120;6.772;2023-08-08T04:24:02;23.15;;;6.00;;
5774;SDS011;2913;51.120;6.772;2023-08-08T04:26:28;16.58;;;5.70;;
5774;SDS011;2913;51.120;6.772;2023-08-08T04:28:54;28.42;;;6.22;;
5774;SDS011;2913;51.120;6.772;2023-08-08T04:31:22;29.85;;;7.22;;
5774;SDS011;2913;51.120;6.772;2023-08-08T04:33:50;19.73;;;5.95;;
5774;SDS011;2913;51.120;6.772;2023-08-08T04:36:16;26.08;;;6.43;;
5774;SDS011;2913;51.120;6.772;2023-08-08T04:38:44;25.02;;;5.82;;
5774;SDS011;2913;51.120;6.772;2023-08-08T04:41:10;31.60;;;6.25;;
5774;SDS011;2913;51.120;6.772;2023-08-08T04:43:38;33.05;;;6.85;;
5774;SDS011;2913;51.120;6.772;2023-08-08T04:46:03;27.50;;;7.22;;
5774;SDS011;2913;51.120;6.772;2023-08-08T04:48:29;37.05;;;6.75;;
5774;SDS011;2913;51.120;6.772;2023-08-08T04:50:57;25.73;;;6.80;;
5774;SDS011;2913;51.120;6.772;2023-08-08T04:53:26;23.00;;;7.10;;
5774;SDS011;2913;51.120;6.772;2023-08-08T04:55:53;37.90;;;7.28;;
5774;SDS011;2913;51.120;6.772;2023-08-08T04:58:19;38.70;;;7.38;;
5774;SDS011;2913;51.120;6.772;2023-08-08T05:00:49;28.50;;;7.40;;
5774;SDS011;2913;51.120;6.772;2023-08-08T05:03:20;28.38;;;7.80;;
5774;SDS011;2913;51.120;6.772;2023-08-08T05:05:47;28.90;;;7.57;;
5774;SDS011;2913;51.120;6.772;2023-08-08T05:08:13;23.65;;;7.70;;
5774;SDS011;2913;51.120;6.772;2023-08-08T05:10:39;32.28;;;7.65;;
5774;SDS011;2913;51.120;6.772;2023-08-08T05:13:05;41.40;;;8.82;;
5774;SDS011;2913;51.120;6.772;2023-08-08T05:15:30;42.83;;;9.30;;
5774;SDS011;2913;51.120;6.772;2023-08-08T05:17:56;34.53;;;8.43;;
5774;SDS011;2913;51.120;6.772;2023-08-08T05:20:22;37.22;;;7.97;;
5774;SDS011;2913;51.120;6.772;2023-08-08T05:22:47;42.33;;;8.00;;
5774;SDS011;2913;51.120;6.772;2023-08-08T05:25:13;34.72;;;8.50;;
5774;SDS011;2913;51.120;6.772;2023-08-08T05:27:39;29.38;;;8.60;;
5774;SDS011;2913;51.120;6.772;2023-08-08T05:30:05;33.53;;;8.27;;
5774;SDS011;2913;51.120;6.772;2023-08-08T05:32:31;51.20;;;8.57;;
5774;SDS011;2913;51.120;6.772;2023-08-08T05:34:59;41.08;;;8.50;;
5774;SDS011;2913;51.120;6.772;2023-08-08T05:37:28;45.55;;;9.07;;
5774;SDS011;2913;51.120;6.772;2023-08-08T05:39:53;26.92;;;8.60;;
5774;SDS011;2913;51.120;6.772;2023-08-08T05:42:21;40.03;;;8.63;;
5774;SDS011;2913;51.120;6.772;2023-08-08T05:44:47;38.20;;;9.48;;
5774;SDS011;2913;51.120;6.772;2023-08-08T05:47:13;39.10;;;8.65;;
5774;SDS011;2913;51.120;6.772;2023-08-08T05:49:38;43.30;;;9.02;;
5774;SDS011;2913;51.120;6.772;2023-08-08T05:52:07;51.40;;;9.85;;
5774;SDS011;2913;51.120;6.772;2023-08-08T05:54:34;36.85;;;9.95;;
5774;SDS011;2913;51.120;6.772;2023-08-08T05:56:59;42.45;;;9.50;;
5774;SDS011;2913;51.120;6.772;2023-08-08T05:59:25;34.47;;;8.93;;
5774;SDS011;2913;51.120;6.772;2023-08-08T06:01:53;55.72;;;12.38;;
5774;SDS011;2913;51.120;6.772;2023-08-08T06:04:19;31.42;;;9.25;;
5774;SDS011;2913;51.120;6.772;2023-08-08T06:06:44;30.40;;;8.52;;
5774;SDS011;2913;51.120;6.772;2023-08-08T06:09:13;44.60;;;9.93;;
5774;SDS011;2913;51.120;6.772;2023-08-08T06:11:39;31.58;;;8.65;;
5774;SDS011;2913;51.120;6.772;2023-08-08T06:14:05;44.13;;;8.80;;
5774;SDS011;2913;51.120;6.772;2023-08-08T06:16:33;26.88;;;8.77;;
5774;SDS011;2913;51.120;6.772;2023-08-08T06:19:01;40.13;;;7.70;;
5774;SDS011;2913;51.120;6.772;2023-08-08T06:21:27;36.92;;;8.45;;
5774;SDS011;2913;51.120;6.772;2023-08-08T06:23:55;47.42;;;8.68;;
5774;SDS011;2913;51.120;6.772;2023-08-08T06:26:23;42.88;;;8.73;;
5774;SDS011;2913;51.120;6.772;2023-08-08T06:28:55;38.95;;;8.82;;
5774;SDS011;2913;51.120;6.772;2023-08-08T06:31:21;44.33;;;7.68;;
5774;SDS011;2913;51.120;6.772;2023-08-08T06:33:47;39.70;;;7.93;;
5774;SDS011;2913;51.120;6.772;2023-08-08T06:36:15;48.75;;;9.02;;
5774;SDS011;2913;51.120;6.772;2023-08-08T06:38:44;34.35;;;7.78;;
5774;SDS011;2913;51.120;6.772;2023-08-08T06:41:11;40.33;;;7.50;;
5774;SDS011;2913;51.120;6.772;2023-08-08T06:43:37;35.00;;;7.63;;
5774;SDS011;2913;51.120;6.772;2023-08-08T06:46:06;31.83;;;7.82;;
5774;SDS011;2913;51.120;6.772;2023-08-08T06:48:34;48.55;;;7.95;;
5774;SDS011;2913;51.120;6.772;2023-08-08T06:51:02;37.75;;;8.18;;
5774;SDS011;2913;51.120;6.772;2023-08-08T06:53:27;36.72;;;7.63;;
5774;SDS011;2913;51.120;6.772;2023-08-08T06:55:56;42.45;;;8.73;;
5774;SDS011;2913;51.120;6.772;2023-08-08T06:58:22;40.60;;;8.45;;
5774;SDS011;2913;51.120;6.772;2023-08-08T07:00:50;29.63;;;7.28;;
5774;SDS011;2913;51.120;6.772;2023-08-08T07:03:18;37.45;;;9.15;;
5774;SDS011;2913;51.120;6.772;2023-08-08T07:05:44;38.03;;;8.70;;
5774;SDS011;2913;51.120;6.772;2023-08-08T07:08:09;44.22;;;8.20;;
5774;SDS011;2913;51.120;6.772;2023-08-08T07:10:35;36.35;;;9.98;;
5774;SDS011;2913;51.120;6.772;2023-08-08T07:13:01;41.35;;;8.20;;
5774;SDS011;2913;51.120;6.772;2023-08-08T07:15:29;48.42;;;9.10;;
5774;SDS011;2913;51.120;6.772;2023-08-08T07:17:59;35.90;;;8.85;;
5774;SDS011;2913;51.120;6.772;2023-08-08T07:20:25;35.80;;;9.32;;
5774;SDS011;2913;51.120;6.772;2023-08-08T07:22:50;31.27;;;8.32;;
5774;SDS011;2913;51.120;6.772;2023-08-08T07:25:16;40.95;;;9.18;;
5774;SDS011;2913;51.120;6.772;2023-08-08T07:27:42;45.08;;;9.27;;
5774;SDS011;2913;51.120;6.772;2023-08-08T07:30:07;38.00;;;8.13;;
5774;SDS011;2913;51.120;6.772;2023-08-08T07:32:39;38.92;;;9.18;;
5774;SDS011;2913;51.120;6.772;2023-08-08T07:35:04;30.75;;;8.60;;
5774;SDS011;2913;51.120;6.772;2023-08-08T07:37:36;25.70;;;8.30;;
5774;SDS011;2913;51.120;6.772;2023-08-08T07:40:01;38.30;;;8.77;;
5774;SDS011;2913;51.120;6.772;2023-08-08T07:42:28;53.25;;;9.48;;
5774;SDS011;2913;51.120;6.772;2023-08-08T07:44:54;40.05;;;9.35;;
5774;SDS011;2913;51.120;6.772;2023-08-08T07:47:20;47.45;;;10.52;;
5774;SDS011;2913;51.120;6.772;2023-08-08T07:49:48;36.53;;;8.68;;
5774;SDS011;2913;51.120;6.772;2023-08-08T07:52:13;39.67;;;10.02;;
5774;SDS011;2913;51.120;6.772;2023-08-08T07:54:41;25.55;;;8.27;;
5774;SDS011;2913;51.120;6.772;2023-08-08T07:57:07;48.75;;;8.35;;
5774;SDS011;2913;51.120;6.772;2023-08-08T07:59:35;35.63;;;10.15;;
5774;SDS011;2913;51.120;6.772;2023-08-08T08:02:01;39.13;;;9.85;;
5774;SDS011;2913;51.120;6.772;2023-08-08T08:04:27;32.83;;;9.60;;
5774;SDS011;2913;51.120;6.772;2023-08-08T08:06:55;32.90;;;9.02;;
5774;SDS011;2913;51.120;6.772;2023-08-08T08:09:21;37.10;;;8.73;;
5774;SDS011;2913;51.120;6.772;2023-08-08T08:11:49;36.38;;;9.73;;
5774;SDS011;2913;51.120;6.772;2023-08-08T08:14:14;47.40;;;9.40;;
5774;SDS011;2913;51.120;6.772;2023-08-08T08:16:40;46.38;;;10.82;;
5774;SDS011;2913;51.120;6.772;2023-08-08T08:19:06;45.47;;;8.88;;
5774;SDS011;2913;51.120;6.772;2023-08-08T08:21:31;44.17;;;9.55;;
5774;SDS011;2913;51.120;6.772;2023-08-08T08:23:59;42.58;;;9.23;;
5774;SDS011;2913;51.120;6.772;2023-08-08T08:26:25;34.42;;;11.05;;
5774;SDS011;2913;51.120;6.772;2023-08-08T08:28:53;47.65;;;10.00;;
5774;SDS011;2913;51.120;6.772;2023-08-08T08:31:19;40.03;;;8.75;;
5774;SDS011;2913;51.120;6.772;2023-08-08T08:33:44;56.42;;;10.02;;
5774;SDS011;2913;51.120;6.772;2023-08-08T08:36:10;44.72;;;9.27;;
5774;SDS011;2913;51.120;6.772;2023-08-08T08:38:35;47.55;;;9.88;;
5774;SDS011;2913;51.120;6.772;2023-08-08T08:41:05;52.13;;;10.43;;
5774;SDS011;2913;51.120;6.772;2023-08-08T08:43:34;56.78;;;11.65;;
5774;SDS011;2913;51.120;6.772;2023-08-08T08:46:02;49.80;;;10.15;;
5774;SDS011;2913;51.120;6.772;2023-08-08T08:48:28;38.63;;;9.82;;
5774;SDS011;2913;51.120;6.772;2023-08-08T08:50:56;51.60;;;11.02;;
5774;SDS011;2913;51.120;6.772;2023-08-08T08:53:25;44.97;;;9.43;;
5774;SDS011;2913;51.120;6.772;2023-08-08T08:55:53;58.53;;;11.95;;
5774;SDS011;2913;51.120;6.772;2023-08-08T08:58:21;36.03;;;9.75;;
5774;SDS011;2913;51.120;6.772;2023-08-08T09:00:49;43.95;;;10.60;;
5774;SDS011;2913;51.120;6.772;2023-08-08T09:03:16;48.15;;;10.30;;
5774;SDS011;2913;51.120;6.772;2023-08-08T09:05:41;40.00;;;11.93;;
5774;SDS011;2913;51.120;6.772;2023-08-08T09:08:10;33.63;;;10.68;;
5774;SDS011;2913;51.120;6.772;2023-08-08T09:10:37;39.38;;;11.93;;
5774;SDS011;2913;51.120;6.772;2023-08-08T09:13:03;47.60;;;13.27;;
5774;SDS011;2913;51.120;6.772;2023-08-08T09:15:30;48.45;;;10.88;;
5774;SDS011;2913;51.120;6.772;2023-08-08T09:17:56;39.30;;;12.18;;
5774;SDS011;2913;51.120;6.772;2023-08-08T09:20:22;31.77;;;11.68;;
5774;SDS011;2913;51.120;6.772;2023-08-08T09:22:50;36.10;;;10.55;;
5774;SDS011;2913;51.120;6.772;2023-08-08T09:25:19;53.95;;;11.60;;
5774;SDS011;2913;51.120;6.772;2023-08-08T09:27:48;43.72;;;12.07;;
5774;SDS011;2913;51.120;6.772;2023-08-08T09:30:17;36.88;;;11.30;;
5774;SDS011;2913;51.120;6.772;2023-08-08T09:32:43;37.17;;;11.20;;
5774;SDS011;2913;51.120;6.772;2023-08-08T09:35:10;46.20;;;10.93;;
5774;SDS011;2913;51.120;6.772;2023-08-08T09:37:38;40.25;;;10.23;;
5774;SDS011;2913;51.120;6.772;2023-08-08T09:40:05;34.03;;;10.05;;
5774;SDS011;2913;51.120;6.772;2023-08-08T09:42:33;32.80;;;10.43;;
5774;SDS011;2913;51.120;6.772;2023-08-08T09:45:01;47.03;;;10.30;;
5774;SDS011;2913;51.120;6.772;2023-08-08T09:47:29;40.85;;;10.60;;
5774;SDS011;2913;51.120;6.772;2023-08-08T09:50:01;36.50;;;11.35;;
5774;SDS011;2913;51.120;6.772;2023-08-08T09:52:31;41.42;;;11.80;;
5774;SDS011;2913;51.120;6.772;2023-08-08T09:54:59;37.17;;;11.43;;
5774;SDS011;2913;51.120;6.772;2023-08-08T09:57:27;48.80;;;11.77;;
5774;SDS011;2913;51.120;6.772;2023-08-08T09:59:54;29.02;;;9.93;;
5774;SDS011;2913;51.120;6.772;2023-08-08T10:02:20;26.00;;;9.07;;
5774;SDS011;2913;51.120;6.772;2023-08-08T10:04:46;30.52;;;9.82;;
5774;SDS011;2913;51.120;6.772;2023-08-08T10:07:12;34.75;;;10.20;;
5774;SDS011;2913;51.120;6.772;2023-08-08T10:09:38;31.83;;;9.48;;
5774;SDS011;2913;51.120;6.772;2023-08-08T10:12:09;33.60;;;10.95;;
5774;SDS011;2913;51.120;6.772;2023-08-08T10:14:37;31.00;;;9.77;;
5774;SDS011;2913;51.120;6.772;2023-08-08T10:17:08;39.95;;;9.65;;
5774;SDS011;2913;51.120;6.772;2023-08-08T10:19:39;32.42;;;9.80;;
5774;SDS011;2913;51.120;6.772;2023-08-08T10:22:05;32.63;;;11.25;;
5774;SDS011;2913;51.120;6.772;2023-08-08T10:24:34;33.42;;;10.95;;
5774;SDS011;2913;51.120;6.772;2023-08-08T10:27:01;33.90;;;10.48;;
5774;SDS011;2913;51.120;6.772;2023-08-08T10:29:29;29.73;;;9.63;;
5774;SDS011;2913;51.120;6.772;2023-08-08T10:32:01;25.45;;;10.57;;
5774;SDS011;2913;51.120;6.772;2023-08-08T10:37:15;29.77;;;8.93;;
5774;SDS011;2913;51.120;6.772;2023-08-08T10:39:51;28.38;;;9.80;;
5774;SDS011;2913;51.120;6.772;2023-08-08T10:42:26;26.38;;;9.18;;
5774;SDS011;2913;51.120;6.772;2023-08-08T10:44:53;27.65;;;8.70;;
5774;SDS011;2913;51.120;6.772;2023-08-08T10:47:31;38.72;;;12.45;;
5774;SDS011;2913;51.120;6.772;2023-08-08T10:55:25;26.38;;;8.68;;
5774;SDS011;2913;51.120;6.772;2023-08-08T10:57:53;41.38;;;9.25;;
5774;SDS011;2913;51.120;6.772;2023-08-08T11:00:20;30.30;;;8.63;;
5774;SDS011;2913;51.120;6.772;2023-08-08T11:02:53;31.13;;;8.37;;
5774;SDS011;2913;51.120;6.772;2023-08-08T11:05:20;29.80;;;8.75;;
5774;SDS011;2913;51.120;6.772;2023-08-08T11:07:47;27.67;;;7.53;;
5774;SDS011;2913;51.120;6.772;2023-08-08T11:10:15;22.67;;;7.28;;
5774;SDS011;2913;51.120;6.772;2023-08-08T11:12:41;25.05;;;8.32;;
5774;SDS011;2913;51.120;6.772;2023-08-08T11:15:07;27.55;;;6.90;;
5774;SDS011;2913;51.120;6.772;2023-08-08T11:17:33;29.80;;;7.00;;
5774;SDS011;2913;51.120;6.772;2023-08-08T11:19:59;22.27;;;6.72;;
5774;SDS011;2913;51.120;6.772;2023-08-08T11:22:28;29.05;;;7.10;;
5774;SDS011;2913;51.120;6.772;2023-08-08T11:24:58;16.70;;;6.10;;
5774;SDS011;2913;51.120;6.772;2023-08-08T11:27:28;31.98;;;6.40;;
5774;SDS011;2913;51.120;6.772;2023-08-08T11:29:55;20.20;;;6.95;;
5774;SDS011;2913;51.120;6.772;2023-08-08T11:32:22;21.08;;;6.40;;
5774;SDS011;2913;51.120;6.772;2023-08-08T11:34:50;30.80;;;7.10;;
5774;SDS011;2913;51.120;6.772;2023-08-08T11:37:19;20.30;;;6.95;;
5774;SDS011;2913;51.120;6.772;2023-08-08T11:39:45;20.38;;;6.82;;
5774;SDS011;2913;51.120;6.772;2023-08-08T11:42:11;17.98;;;5.97;;
5774;SDS011;2913;51.120;6.772;2023-08-08T11:44:41;21.17;;;6.63;;
5774;SDS011;2913;51.120;6.772;2023-08-08T11:47:07;20.85;;;6.53;;
5774;SDS011;2913;51.120;6.772;2023-08-08T11:49:41;25.00;;;6.32;;
5774;SDS011;2913;51.120;6.772;2023-08-08T11:52:07;29.67;;;7.88;;
5774;SDS011;2913;51.120;6.772;2023-08-08T11:54:33;22.13;;;7.22;;
5774;SDS011;2913;51.120;6.772;2023-08-08T11:57:04;24.35;;;8.20;;
5774;SDS011;2913;51.120;6.772;2023-08-08T11:59:33;19.58;;;6.88;;
5774;SDS011;2913;51.120;6.772;2023-08-08T12:02:00;26.50;;;7.47;;
5774;SDS011;2913;51.120;6.772;2023-08-08T12:04:25;29.13;;;7.80;;
5774;SDS011;2913;51.120;6.772;2023-08-08T12:06:57;25.98;;;8.18;;
5774;SDS011;2913;51.120;6.772;2023-08-08T12:09:31;25.75;;;8.30;;
5774;SDS011;2913;51.120;6.772;2023-08-08T12:12:01;25.48;;;8.30;;
5774;SDS011;2913;51.120;6.772;2023-08-08T12:14:36;25.77;;;9.02;;
5774;SDS011;2913;51.120;6.772;2023-08-08T12:17:06;29.42;;;8.60;;
5774;SDS011;2913;51.120;6.772;2023-08-08T12:19:34;34.50;;;9.38;;
5774;SDS011;2913;51.120;6.772;2023-08-08T12:22:00;32.95;;;9.25;;
5774;SDS011;2913;51.120;6.772;2023-08-08T12:24:26;25.33;;;8.60;;
5774;SDS011;2913;51.120;6.772;2023-08-08T12:26:54;23.70;;;8.27;;
5774;SDS011;2913;51.120;6.772;2023-08-08T12:29:22;27.30;;;8.02;;
5774;SDS011;2913;51.120;6.772;2023-08-08T12:31:47;31.55;;;7.63;;
5774;SDS011;2913;51.120;6.772;2023-08-08T12:34:13;27.13;;;6.28;;
5774;SDS011;2913;51.120;6.772;2023-08-08T12:36:39;21.13;;;7.22;;
5774;SDS011;2913;51.120;6.772;2023-08-08T12:39:05;24.55;;;7.53;;
5774;SDS011;2913;51.120;6.772;2023-08-08T12:41:31;16.92;;;7.03;;
5774;SDS011;2913;51.120;6.772;2023-08-08T12:43:59;22.30;;;7.25;;
5774;SDS011;2913;51.120;6.772;2023-08-08T12:46:28;28.27;;;8.32;;
5774;SDS011;2913;51.120;6.772;2023-08-08T12:48:54;24.08;;;7.75;;
5774;SDS011;2913;51.120;6.772;2023-08-08T12:51:19;28.88;;;8.23;;
5774;SDS011;2913;51.120;6.772;2023-08-08T12:53:48;30.65;;;9.32;;
5774;SDS011;2913;51.120;6.772;2023-08-08T12:56:15;19.15;;;8.38;;
5774;SDS011;2913;51.120;6.772;2023-08-08T12:58:42;25.02;;;8.55;;
5774;SDS011;2913;51.120;6.772;2023-08-08T13:01:08;32.42;;;9.00;;
5774;SDS011;2913;51.120;6.772;2023-08-08T13:03:34;29.98;;;8.90;;
5774;SDS011;2913;51.120;6.772;2023-08-08T13:05:59;29.40;;;9.38;;
5774;SDS011;2913;51.120;6.772;2023-08-08T13:08:25;28.08;;;9.20;;
5774;SDS011;2913;51.120;6.772;2023-08-08T13:10:51;34.90;;;9.07;;
5774;SDS011;2913;51.120;6.772;2023-08-08T13:13:20;26.23;;;9.55;;
5774;SDS011;2913;51.120;6.772;2023-08-08T13:15:49;24.75;;;7.95;;
5774;SDS011;2913;51.120;6.772;2023-08-08T13:18:15;29.30;;;8.40;;
5774;SDS011;2913;51.120;6.772;2023-08-08T13:20:41;25.30;;;8.52;;
5774;SDS011;2913;51.120;6.772;2023-08-08T13:23:06;29.17;;;8.80;;
5774;SDS011;2913;51.120;6.772;2023-08-08T13:25:34;19.33;;;8.43;;
5774;SDS011;2913;51.120;6.772;2023-08-08T13:28:00;23.63;;;8.43;;
5774;SDS011;2913;51.120;6.772;2023-08-08T13:30:28;30.40;;;8.68;;
5774;SDS011;2913;51.120;6.772;2023-08-08T13:32:53;31.48;;;8.73;;
5774;SDS011;2913;51.120;6.772;2023-08-08T13:35:21;27.98;;;8.43;;
5774;SDS011;2913;51.120;6.772;2023-08-08T13:37:49;25.52;;;9.20;;
5774;SDS011;2913;51.120;6.772;2023-08-08T13:40:17;14.88;;;7.97;;
5774;SDS011;2913;51.120;6.772;2023-08-08T13:42:43;33.55;;;8.43;;
5774;SDS011;2913;51.120;6.772;2023-08-08T13:45:12;28.25;;;9.13;;
5774;SDS011;2913;51.120;6.772;2023-08-08T13:47:43;22.38;;;8.30;;
5774;SDS011;2913;51.120;6.772;2023-08-08T13:50:09;35.80;;;8.30;;
5774;SDS011;2913;51.120;6.772;2023-08-08T13:52:40;22.88;;;7.10;;
5774;SDS011;2913;51.120;6.772;2023-08-08T13:55:07;23.15;;;6.47;;
5774;SDS011;2913;51.120;6.772;2023-08-08T13:57:33;22.48;;;6.47;;
5774;SDS011;2913;51.120;6.772;2023-08-08T14:00:05;16.25;;;5.55;;
5774;SDS011;2913;51.120;6.772;2023-08-08T14:02:31;26.17;;;6.63;;
5774;SDS011;2913;51.120;6.772;2023-08-08T14:05:00;23.33;;;5.38;;
5774;SDS011;2913;51.120;6.772;2023-08-08T14:07:27;24.80;;;5.38;;
5774;SDS011;2913;51.120;6.772;2023-08-08T14:09:57;17.33;;;5.05;;
5774;SDS011;2913;51.120;6.772;2023-08-08T14:12:22;18.90;;;5.85;;
5774;SDS011;2913;51.120;6.772;2023-08-08T14:14:48;20.75;;;5.65;;
5774;SDS011;2913;51.120;6.772;2023-08-08T14:17:14;19.30;;;5.45;;
5774;SDS011;2913;51.120;6.772;2023-08-08T14:19:39;28.02;;;6.60;;
5774;SDS011;2913;51.120;6.772;2023-08-08T14:22:05;33.40;;;6.10;;
5774;SDS011;2913;51.120;6.772;2023-08-08T14:24:33;20.30;;;5.93;;
5774;SDS011;2913;51.120;6.772;2023-08-08T14:27:01;17.20;;;4.82;;
5774;SDS011;2913;51.120;6.772;2023-08-08T14:29:29;18.15;;;5.20;;
5774;SDS011;2913;51.120;6.772;2023-08-08T14:31:55;12.55;;;4.97;;
5774;SDS011;2913;51.120;6.772;2023-08-08T14:34:32;20.48;;;6.30;;
5774;SDS011;2913;51.120;6.772;2023-08-08T14:36:59;23.13;;;5.68;;
5774;SDS011;2913;51.120;6.772;2023-08-08T14:39:26;21.30;;;6.43;;
5774;SDS011;2913;51.120;6.772;2023-08-08T14:41:52;24.58;;;6.22;;
5774;SDS011;2913;51.120;6.772;2023-08-08T14:44:18;16.15;;;5.13;;
5774;SDS011;2913;51.120;6.772;2023-08-08T14:46:46;26.75;;;6.20;;
5774;SDS011;2913;51.120;6.772;2023-08-08T14:49:12;16.00;;;5.35;;
5774;SDS011;2913;51.120;6.772;2023-08-08T14:51:38;14.65;;;5.75;;
5774;SDS011;2913;51.120;6.772;2023-08-08T14:54:04;26.65;;;5.63;;
5774;SDS011;2913;51.120;6.772;2023-08-08T14:56:31;21.85;;;6.65;;
5774;SDS011;2913;51.120;6.772;2023-08-08T14:59:00;17.85;;;5.50;;
5774;SDS011;2913;51.120;6.772;2023-08-08T15:01:26;18.23;;;6.07;;
5774;SDS011;2913;51.120;6.772;2023-08-08T15:03:53;17.10;;;6.60;;
5774;SDS011;2913;51.120;6.772;2023-08-08T15:06:21;20.80;;;6.32;;
5774;SDS011;2913;51.120;6.772;2023-08-08T15:08:47;21.23;;;6.57;;
5774;SDS011;2913;51.120;6.772;2023-08-08T15:11:15;17.10;;;6.00;;